sensor_id;sensor_type;location;lat;lon;timestamp;pressure;altitude;pressure_sealevel;temperature;humidity
65376;BME280;51976;47.332;9.404;2023-04-10T00:00:02;93115.63;;;3.44;64.53
65376;BME280;51976;47.332;9.404;2023-04-10T00:02:28;93113.44;;;3.40;64.73
65376;BME280;51976;47.332;9.404;2023-04-10T00:04:53;93056.53;;;2.88;65.18
65376;BME280;51976;47.332;9.404;2023-04-10T00:07:19;93112.50;;;3.35;65.11
65376;BME280;51976;47.332;9.404;2023-04-10T00:09:44;93101.50;;;3.20;65.58
65376;BME280;51976;47.332;9.404;2023-04-10T00:12:10;93108.22;;;3.22;65.27
65376;BME280;51976;47.332;9.404;2023-04-10T00:14:36;93106.47;;;3.39;64.91
65376;BME280;51976;47.332;9.404;2023-04-10T00:17:01;93101.59;;;3.36;64.55
65376;BME280;51976;47.332;9.404;2023-04-10T00:19:27;93094.78;;;3.17;65.00
65376;BME280;51976;47.332;9.404;2023-04-10T00:21:52;93103.69;;;3.11;64.89
65376;BME280;51976;47.332;9.404;2023-04-10T00:24:18;93097.69;;;3.16;65.07
65376;BME280;51976;47.332;9.404;2023-04-10T00:26:43;93098.72;;;3.15;65.49
65376;BME280;51976;47.332;9.404;2023-04-10T00:29:08;93098.59;;;3.10;65.66
65376;BME280;51976;47.332;9.404;2023-04-10T00:31:34;93098.22;;;3.06;65.70
65376;BME280;51976;47.332;9.404;2023-04-10T00:33:59;93038.59;;;2.84;65.27
65376;BME280;51976;47.332;9.404;2023-04-10T00:36:25;93098.22;;;3.06;65.28
65376;BME280;51976;47.332;9.404;2023-04-10T00:38:52;93100.06;;;2.82;65.82
65376;BME280;51976;47.332;9.404;2023-04-10T00:41:17;93093.09;;;2.81;66.18
65376;BME280;51976;47.332;9.404;2023-04-10T00:43:43;93094.88;;;2.46;67.09
65376;BME280;51976;47.332;9.404;2023-04-10T00:46:08;93095.88;;;2.75;66.29
65376;BME280;51976;47.332;9.404;2023-04-10T00:48:34;93088.94;;;2.85;65.57
65376;BME280;51976;47.332;9.404;2023-04-10T00:51:00;93095.13;;;2.97;65.27
65376;BME280;51976;47.332;9.404;2023-04-10T00:53:26;93085.81;;;2.77;65.84
65376;BME280;51976;47.332;9.404;2023-04-10T00:55:52;93087.66;;;2.76;66.08
65376;BME280;51976;47.332;9.404;2023-04-10T00:58:18;93088.75;;;2.98;65.74
65376;BME280;51976;47.332;9.404;2023-04-10T01:00:43;93086.09;;;3.10;65.09
65376;BME280;51976;47.332;9.404;2023-04-10T01:03:10;93085.38;;;3.03;65.30
65376;BME280;51976;47.332;9.404;2023-04-10T01:05:51;93084.69;;;3.08;65.28
65376;BME280;51976;47.332;9.404;2023-04-10T01:08:49;93074.25;;;3.06;64.95
65376;BME280;51976;47.332;9.404;2023-04-10T01:11:52;93091.28;;;2.93;65.36
65376;BME280;51976;47.332;9.404;2023-04-10T01:14:34;93078.53;;;2.72;65.83
65376;BME280;51976;47.332;9.404;2023-04-10T01:17:13;93085.34;;;2.68;65.83
65376;BME280;51976;47.332;9.404;2023-04-10T01:20:08;93084.34;;;2.39;66.81
65376;BME280;51976;47.332;9.404;2023-04-10T01:22:48;93062.38;;;2.55;65.91
65376;BME280;51976;47.332;9.404;2023-04-10T01:25:43;93075.38;;;2.63;65.87
65376;BME280;51976;47.332;9.404;2023-04-10T01:28:23;93074.69;;;2.68;65.84
65376;BME280;51976;47.332;9.404;2023-04-10T01:30:57;93077.72;;;2.71;65.75
65376;BME280;51976;47.332;9.404;2023-04-10T01:33:29;93082.31;;;2.76;65.58
65376;BME280;51976;47.332;9.404;2023-04-10T01:36:01;93077.50;;;2.73;65.16
65376;BME280;51976;47.332;9.404;2023-04-10T01:38:28;93036.22;;;2.52;65.08
65376;BME280;51976;47.332;9.404;2023-04-10T01:40:57;93073.44;;;2.82;65.03
65376;BME280;51976;47.332;9.404;2023-04-10T01:43:24;93077.72;;;2.71;64.98
65376;BME280;51976;47.332;9.404;2023-04-10T01:45:50;93072.31;;;2.48;65.58
65376;BME280;51976;47.332;9.404;2023-04-10T01:48:16;93078.13;;;2.57;65.54
65376;BME280;51976;47.332;9.404;2023-04-10T01:50:44;93081.06;;;2.67;65.22
65376;BME280;51976;47.332;9.404;2023-04-10T01:53:11;93075.00;;;2.60;65.24
65376;BME280;51976;47.332;9.404;2023-04-10T01:55:37;93076.19;;;2.64;64.85
65376;BME280;51976;47.332;9.404;2023-04-10T01:58:03;93085.69;;;2.71;64.83
65376;BME280;51976;47.332;9.404;2023-04-10T02:00:30;93081.59;;;2.16;66.15
65376;BME280;51976;47.332;9.404;2023-04-10T02:03:01;93081.84;;;1.96;67.45
65376;BME280;51976;47.332;9.404;2023-04-10T02:05:30;93080.34;;;2.18;66.84
65376;BME280;51976;47.332;9.404;2023-04-10T02:08:11;93069.63;;;2.36;66.12
65376;BME280;51976;47.332;9.404;2023-04-10T02:10:51;93074.06;;;2.54;65.65
65376;BME280;51976;47.332;9.404;2023-04-10T02:13:20;93076.94;;;2.11;66.03
65376;BME280;51976;47.332;9.404;2023-04-10T02:15:47;93073.56;;;2.04;66.18
65376;BME280;51976;47.332;9.404;2023-04-10T02:18:15;93073.63;;;2.27;65.78
65376;BME280;51976;47.332;9.404;2023-04-10T02:20:42;93076.56;;;2.37;65.40
65376;BME280;51976;47.332;9.404;2023-04-10T02:23:08;93077.31;;;2.45;64.96
65376;BME280;51976;47.332;9.404;2023-04-10T02:25:34;93081.47;;;2.52;64.70
65376;BME280;51976;47.332;9.404;2023-04-10T02:28:04;93080.66;;;2.52;64.57
65376;BME280;51976;47.332;9.404;2023-04-10T02:30:29;93077.69;;;2.60;64.48
65376;BME280;51976;47.332;9.404;2023-04-10T02:32:55;93075.09;;;2.42;64.43
65376;BME280;51976;47.332;9.404;2023-04-10T02:35:20;93061.44;;;2.08;65.05
65376;BME280;51976;47.332;9.404;2023-04-10T02:37:46;93018.22;;;1.83;65.12
65376;BME280;51976;47.332;9.404;2023-04-10T02:40:11;93072.53;;;2.05;65.57
65376;BME280;51976;47.332;9.404;2023-04-10T02:42:37;93034.69;;;1.91;65.21
65376;BME280;51976;47.332;9.404;2023-04-10T02:45:02;93076.50;;;1.96;65.77
65376;BME280;51976;47.332;9.404;2023-04-10T02:47:28;93073.84;;;2.14;65.58
65376;BME280;51976;47.332;9.404;2023-04-10T02:49:53;93056.50;;;1.93;65.50
65376;BME280;51976;47.332;9.404;2023-04-10T02:52:19;93067.47;;;2.15;64.85
65376;BME280;51976;47.332;9.404;2023-04-10T02:54:44;93067.72;;;2.25;64.80
65376;BME280;51976;47.332;9.404;2023-04-10T02:57:10;93068.91;;;2.29;64.82
65376;BME280;51976;47.332;9.404;2023-04-10T02:59:35;93068.88;;;1.88;65.80
65376;BME280;51976;47.332;9.404;2023-04-10T03:02:01;93068.56;;;1.78;65.70
65376;BME280;51976;47.332;9.404;2023-04-10T03:04:26;93068.94;;;1.81;66.11
65376;BME280;51976;47.332;9.404;2023-04-10T03:06:53;93065.28;;;1.94;65.58
65376;BME280;51976;47.332;9.404;2023-04-10T03:09:18;93050.25;;;1.88;64.97
65376;BME280;51976;47.332;9.404;2023-04-10T03:11:44;93064.31;;;2.07;65.07
65376;BME280;51976;47.332;9.404;2023-04-10T03:14:09;93067.84;;;1.89;65.24
65376;BME280;51976;47.332;9.404;2023-04-10T03:16:35;93062.78;;;1.99;65.15
65376;BME280;51976;47.332;9.404;2023-04-10T03:19:00;93008.66;;;1.45;65.79
65376;BME280;51976;47.332;9.404;2023-04-10T03:21:25;93063.59;;;1.99;65.18
65376;BME280;51976;47.332;9.404;2023-04-10T03:23:51;93070.59;;;1.94;65.65
65376;BME280;51976;47.332;9.404;2023-04-10T03:26:17;93052.13;;;1.99;64.88
65376;BME280;51976;47.332;9.404;2023-04-10T03:28:42;93074.28;;;2.11;64.92
65376;BME280;51976;47.332;9.404;2023-04-10T03:31:07;93066.66;;;2.15;64.47
65376;BME280;51976;47.332;9.404;2023-04-10T03:33:33;93059.84;;;1.89;64.90
65376;BME280;51976;47.332;9.404;2023-04-10T03:35:59;93068.78;;;1.76;65.32
65376;BME280;51976;47.332;9.404;2023-04-10T03:38:24;93063.34;;;1.71;65.74
65376;BME280;51976;47.332;9.404;2023-04-10T03:40:50;93067.84;;;1.89;65.10
65376;BME280;51976;47.332;9.404;2023-04-10T03:43:15;93057.66;;;1.86;64.79
65376;BME280;51976;47.332;9.404;2023-04-10T03:45:41;93074.00;;;2.01;64.57
65376;BME280;51976;47.332;9.404;2023-04-10T03:48:06;93071.09;;;1.91;64.78
65376;BME280;51976;47.332;9.404;2023-04-10T03:50:32;93073.38;;;1.87;64.73
65376;BME280;51976;47.332;9.404;2023-04-10T03:52:57;93071.38;;;1.83;64.73
65376;BME280;51976;47.332;9.404;2023-04-10T03:55:22;93080.09;;;1.90;64.37
65376;BME280;51976;47.332;9.404;2023-04-10T03:57:48;93073.84;;;1.96;64.40
65376;BME280;51976;47.332;9.404;2023-04-10T04:00:14;93076.84;;;1.88;64.67
65376;BME280;51976;47.332;9.404;2023-04-10T04:02:41;93066.66;;;1.85;64.43
65376;BME280;51976;47.332;9.404;2023-04-10T04:05:06;93082.63;;;1.96;64.26
65376;BME280;51976;47.332;9.404;2023-04-10T04:07:32;93080.84;;;1.79;64.31
65376;BME280;51976;47.332;9.404;2023-04-10T04:09:58;93089.53;;;1.67;64.66
65376;BME280;51976;47.332;9.404;2023-04-10T04:12:23;93084.53;;;1.78;64.53
65376;BME280;51976;47.332;9.404;2023-04-10T04:14:48;93084.00;;;1.87;64.09
65376;BME280;51976;47.332;9.404;2023-04-10T04:17:14;93081.72;;;1.73;64.49
65376;BME280;51976;47.332;9.404;2023-04-10T04:19:39;93088.59;;;1.80;64.57
65376;BME280;51976;47.332;9.404;2023-04-10T04:22:05;93092.94;;;1.75;64.30
65376;BME280;51976;47.332;9.404;2023-04-10T04:24:30;93095.88;;;1.66;64.33
65376;BME280;51976;47.332;9.404;2023-04-10T04:26:55;93097.06;;;1.70;64.60
65376;BME280;51976;47.332;9.404;2023-04-10T04:29:21;93102.47;;;1.64;64.40
65376;BME280;51976;47.332;9.404;2023-04-10T04:31:47;93108.44;;;1.78;64.20
65376;BME280;51976;47.332;9.404;2023-04-10T04:34:12;93103.56;;;1.75;64.01
65376;BME280;51976;47.332;9.404;2023-04-10T04:36:37;93093.97;;;1.74;63.99
65376;BME280;51976;47.332;9.404;2023-04-10T04:39:03;93095.75;;;1.80;63.91
65376;BME280;51976;47.332;9.404;2023-04-10T04:41:28;93091.91;;;1.76;63.89
65376;BME280;51976;47.332;9.404;2023-04-10T04:43:58;93101.06;;;1.80;63.74
65376;BME280;51976;47.332;9.404;2023-04-10T04:46:25;93097.22;;;1.76;63.60
65376;BME280;51976;47.332;9.404;2023-04-10T04:48:50;93083.56;;;1.54;63.99
65376;BME280;51976;47.332;9.404;2023-04-10T04:51:16;93096.41;;;1.57;63.80
65376;BME280;51976;47.332;9.404;2023-04-10T04:53:41;93078.03;;;1.55;63.50
65376;BME280;51976;47.332;9.404;2023-04-10T04:56:07;93089.41;;;1.62;63.50
65376;BME280;51976;47.332;9.404;2023-04-10T04:58:32;93091.91;;;1.76;63.38
65376;BME280;51976;47.332;9.404;2023-04-10T05:00:58;93040.75;;;1.44;63.56
65376;BME280;51976;47.332;9.404;2023-04-10T05:03:23;93089.59;;;1.43;64.23
65376;BME280;51976;47.332;9.404;2023-04-10T05:05:49;93097.06;;;1.52;63.86
65376;BME280;51976;47.332;9.404;2023-04-10T05:08:14;93093.09;;;1.61;63.72
65376;BME280;51976;47.332;9.404;2023-04-10T05:10:40;93086.28;;;1.65;63.62
65376;BME280;51976;47.332;9.404;2023-04-10T05:13:05;93089.53;;;1.67;63.63
65376;BME280;51976;47.332;9.404;2023-04-10T05:15:30;93061.34;;;1.48;64.20
65376;BME280;51976;47.332;9.404;2023-04-10T05:17:56;93081.72;;;1.73;64.20
65376;BME280;51976;47.332;9.404;2023-04-10T05:20:21;93076.75;;;1.76;64.27
65376;BME280;51976;47.332;9.404;2023-04-10T05:22:47;93085.19;;;1.91;63.90
65376;BME280;51976;47.332;9.404;2023-04-10T05:25:13;93085.56;;;1.77;63.80
65376;BME280;51976;47.332;9.404;2023-04-10T05:27:38;93079.88;;;1.91;63.66
65376;BME280;51976;47.332;9.404;2023-04-10T05:30:04;93088.03;;;2.08;63.58
65376;BME280;51976;47.332;9.404;2023-04-10T05:32:29;93087.13;;;2.14;63.82
65376;BME280;51976;47.332;9.404;2023-04-10T05:34:55;93083.25;;;2.28;63.69
65376;BME280;51976;47.332;9.404;2023-04-10T05:37:20;93078.66;;;2.35;63.20
65376;BME280;51976;47.332;9.404;2023-04-10T05:39:45;93083.59;;;2.32;63.40
65376;BME280;51976;47.332;9.404;2023-04-10T05:42:11;93080.88;;;2.38;63.25
65376;BME280;51976;47.332;9.404;2023-04-10T05:44:38;93091.44;;;2.27;62.75
65376;BME280;51976;47.332;9.404;2023-04-10T05:47:03;93081.97;;;2.31;62.82
65376;BME280;51976;47.332;9.404;2023-04-10T05:49:28;93092.22;;;2.46;62.40
65376;BME280;51976;47.332;9.404;2023-04-10T05:51:54;93090.72;;;2.50;62.00
65376;BME280;51976;47.332;9.404;2023-04-10T05:54:19;93031.22;;;2.32;61.52
65376;BME280;51976;47.332;9.404;2023-04-10T05:56:45;93091.25;;;2.70;61.78
65376;BME280;51976;47.332;9.404;2023-04-10T05:59:10;93084.31;;;2.69;61.93
65376;BME280;51976;47.332;9.404;2023-04-10T06:01:38;93085.94;;;2.70;61.95
65376;BME280;51976;47.332;9.404;2023-04-10T06:04:03;93084.56;;;2.91;62.14
65376;BME280;51976;47.332;9.404;2023-04-10T06:06:29;93085.72;;;2.95;62.18
65376;BME280;51976;47.332;9.404;2023-04-10T06:08:55;93083.53;;;3.15;62.04
65376;BME280;51976;47.332;9.404;2023-04-10T06:11:21;93078.78;;;3.29;61.82
65376;BME280;51976;47.332;9.404;2023-04-10T06:13:46;93082.03;;;3.31;61.62
65376;BME280;51976;47.332;9.404;2023-04-10T06:16:12;93085.28;;;3.10;62.28
65376;BME280;51976;47.332;9.404;2023-04-10T06:18:39;93086.66;;;3.47;61.54
65376;BME280;51976;47.332;9.404;2023-04-10T06:21:05;93077.66;;;3.88;60.65
65376;BME280;51976;47.332;9.404;2023-04-10T06:23:31;93077.75;;;4.05;59.67
65376;BME280;51976;47.332;9.404;2023-04-10T06:25:56;93088.78;;;4.08;58.82
65376;BME280;51976;47.332;9.404;2023-04-10T06:28:22;93084.25;;;4.37;58.33
65376;BME280;51976;47.332;9.404;2023-04-10T06:30:47;93077.09;;;4.26;58.81
65376;BME280;51976;47.332;9.404;2023-04-10T06:33:12;93075.50;;;4.42;58.97
65376;BME280;51976;47.332;9.404;2023-04-10T06:35:38;93072.91;;;4.59;59.16
65376;BME280;51976;47.332;9.404;2023-04-10T06:38:03;93073.50;;;4.94;58.66
65376;BME280;51976;47.332;9.404;2023-04-10T06:40:29;93031.00;;;4.93;58.28
65376;BME280;51976;47.332;9.404;2023-04-10T06:42:55;93075.16;;;5.67;57.35
65376;BME280;51976;47.332;9.404;2023-04-10T06:45:20;93027.50;;;5.64;56.15
65376;BME280;51976;47.332;9.404;2023-04-10T06:47:46;93083.44;;;6.26;55.69
65376;BME280;51976;47.332;9.404;2023-04-10T06:50:11;93079.81;;;6.37;54.94
65376;BME280;51976;47.332;9.404;2023-04-10T06:52:37;93078.69;;;6.33;55.10
65376;BME280;51976;47.332;9.404;2023-04-10T06:55:02;93076.19;;;6.49;54.80
65376;BME280;51976;47.332;9.404;2023-04-10T06:57:28;93065.88;;;6.89;53.96
65376;BME280;51976;47.332;9.404;2023-04-10T06:59:53;93028.53;;;6.77;53.59
65376;BME280;51976;47.332;9.404;2023-04-10T07:02:19;93072.59;;;6.65;54.92
65376;BME280;51976;47.332;9.404;2023-04-10T07:04:44;93063.06;;;6.74;55.17
65376;BME280;51976;47.332;9.404;2023-04-10T07:07:10;93063.13;;;6.79;55.60
65376;BME280;51976;47.332;9.404;2023-04-10T07:09:38;93061.78;;;7.08;55.79
65376;BME280;51976;47.332;9.404;2023-04-10T07:12:03;93045.13;;;7.43;55.28
65376;BME280;51976;47.332;9.404;2023-04-10T07:14:29;93063.16;;;7.16;56.00
65376;BME280;51976;47.332;9.404;2023-04-10T07:16:55;93061.06;;;7.23;55.72
65376;BME280;51976;47.332;9.404;2023-04-10T07:19:20;93057.44;;;7.39;55.19
65376;BME280;51976;47.332;9.404;2023-04-10T07:21:46;93060.34;;;7.33;55.49
65376;BME280;51976;47.332;9.404;2023-04-10T07:24:15;93057.09;;;7.63;55.14
65376;BME280;51976;47.332;9.404;2023-04-10T07:26:41;93044.31;;;7.43;55.12
65376;BME280;51976;47.332;9.404;2023-04-10T07:29:06;93050.47;;;7.80;54.08
65376;BME280;51976;47.332;9.404;2023-04-10T07:31:32;93047.00;;;7.85;53.88
65376;BME280;51976;47.332;9.404;2023-04-10T07:33:57;93040.59;;;8.43;53.26
65376;BME280;51976;47.332;9.404;2023-04-10T07:36:22;93038.25;;;8.72;52.11
65376;BME280;51976;47.332;9.404;2023-04-10T07:38:48;93039.00;;;8.47;52.56
65376;BME280;51976;47.332;9.404;2023-04-10T07:41:13;93041.34;;;8.34;52.88
65376;BME280;51976;47.332;9.404;2023-04-10T07:43:40;93044.66;;;8.66;52.52
65376;BME280;51976;47.332;9.404;2023-04-10T07:46:05;93043.28;;;8.59;52.59
65376;BME280;51976;47.332;9.404;2023-04-10T07:48:31;93043.34;;;8.84;52.03
65376;BME280;51976;47.332;9.404;2023-04-10T07:50:56;93040.16;;;9.02;51.89
65376;BME280;51976;47.332;9.404;2023-04-10T07:53:23;93045.28;;;9.29;51.49
65376;BME280;51976;47.332;9.404;2023-04-10T07:55:48;93042.03;;;9.12;51.58
65376;BME280;51976;47.332;9.404;2023-04-10T07:58:14;93037.19;;;9.34;51.37
65376;BME280;51976;47.332;9.404;2023-04-10T08:00:40;93040.94;;;9.69;50.32
65376;BME280;51976;47.332;9.404;2023-04-10T08:03:06;93042.56;;;9.60;50.34
65376;BME280;51976;47.332;9.404;2023-04-10T08:05:31;93035.22;;;10.06;49.46
65376;BME280;51976;47.332;9.404;2023-04-10T08:07:57;93036.50;;;10.18;49.16
65376;BME280;51976;47.332;9.404;2023-04-10T08:10:23;93037.94;;;9.91;49.97
65376;BME280;51976;47.332;9.404;2023-04-10T08:12:48;93038.47;;;9.93;49.79
65376;BME280;51976;47.332;9.404;2023-04-10T08:15:14;93019.66;;;9.77;49.12
65376;BME280;51976;47.332;9.404;2023-04-10T08:17:39;93045.56;;;10.48;48.28
65376;BME280;51976;47.332;9.404;2023-04-10T08:20:05;93040.81;;;10.84;46.33
65376;BME280;51976;47.332;9.404;2023-04-10T08:22:31;93033.81;;;10.83;45.93
65376;BME280;51976;47.332;9.404;2023-04-10T08:24:56;93031.94;;;10.78;46.05
65376;BME280;51976;47.332;9.404;2023-04-10T08:27:22;93037.63;;;10.72;46.82
65376;BME280;51976;47.332;9.404;2023-04-10T08:29:47;93043.72;;;11.32;45.40
65376;BME280;51976;47.332;9.404;2023-04-10T08:32:12;93036.78;;;11.89;43.91
65376;BME280;51976;47.332;9.404;2023-04-10T08:34:38;93043.72;;;11.32;44.51
65376;BME280;51976;47.332;9.404;2023-04-10T08:37:07;93040.09;;;11.80;44.24
65376;BME280;51976;47.332;9.404;2023-04-10T08:39:37;93023.88;;;11.80;44.20
65376;BME280;51976;47.332;9.404;2023-04-10T08:42:02;93046.47;;;11.61;44.56
65376;BME280;51976;47.332;9.404;2023-04-10T08:44:28;93040.16;;;12.28;43.78
65376;BME280;51976;47.332;9.404;2023-04-10T08:46:58;93034.00;;;12.23;43.57
65376;BME280;51976;47.332;9.404;2023-04-10T08:49:39;93034.84;;;12.18;44.29
65376;BME280;51976;47.332;9.404;2023-04-10T08:52:07;93041.06;;;11.61;45.54
65376;BME280;51976;47.332;9.404;2023-04-10T08:54:37;93036.09;;;11.73;45.64
65376;BME280;51976;47.332;9.404;2023-04-10T08:57:06;93035.09;;;11.98;44.53
65376;BME280;51976;47.332;9.404;2023-04-10T08:59:32;93027.84;;;12.41;43.36
65376;BME280;51976;47.332;9.404;2023-04-10T09:01:58;93032.03;;;11.75;43.52
65376;BME280;51976;47.332;9.404;2023-04-10T09:04:24;93035.41;;;11.91;43.72
65376;BME280;51976;47.332;9.404;2023-04-10T09:06:53;93036.31;;;11.81;43.87
65376;BME280;51976;47.332;9.404;2023-04-10T09:09:18;93026.31;;;12.77;42.68
65376;BME280;51976;47.332;9.404;2023-04-10T09:11:55;93031.59;;;12.21;43.85
65376;BME280;51976;47.332;9.404;2023-04-10T09:14:25;93027.72;;;12.51;42.73
65376;BME280;51976;47.332;9.404;2023-04-10T09:16:52;93030.91;;;12.77;41.70
65376;BME280;51976;47.332;9.404;2023-04-10T09:19:31;93027.34;;;13.00;41.44
65376;BME280;51976;47.332;9.404;2023-04-10T09:21:56;93021.75;;;13.80;39.72
65376;BME280;51976;47.332;9.404;2023-04-10T09:24:22;93027.00;;;12.64;41.60
65376;BME280;51976;47.332;9.404;2023-04-10T09:26:48;93023.56;;;13.39;40.44
65376;BME280;51976;47.332;9.404;2023-04-10T09:29:13;93023.22;;;13.59;39.40
65376;BME280;51976;47.332;9.404;2023-04-10T09:31:41;93020.47;;;13.08;40.60
65376;BME280;51976;47.332;9.404;2023-04-10T09:34:18;93028.19;;;12.77;41.04
65376;BME280;51976;47.332;9.404;2023-04-10T09:36:58;93008.59;;;12.66;41.83
65376;BME280;51976;47.332;9.404;2023-04-10T09:39:33;93030.88;;;12.34;41.84
65376;BME280;51976;47.332;9.404;2023-04-10T09:41:58;93025.75;;;13.18;40.99
65376;BME280;51976;47.332;9.404;2023-04-10T09:44:29;93024.41;;;13.53;41.23
65376;BME280;51976;47.332;9.404;2023-04-10T09:46:56;93029.44;;;12.42;44.89
65376;BME280;51976;47.332;9.404;2023-04-10T09:49:21;93020.00;;;12.39;45.75
65376;BME280;51976;47.332;9.404;2023-04-10T09:51:47;93019.44;;;12.18;44.69
65376;BME280;51976;47.332;9.404;2023-04-10T09:54:14;93025.38;;;12.20;45.67
65376;BME280;51976;47.332;9.404;2023-04-10T09:56:40;93026.41;;;12.01;45.82
65376;BME280;51976;47.332;9.404;2023-04-10T09:59:06;93019.66;;;12.46;45.34
65376;BME280;51976;47.332;9.404;2023-04-10T10:01:32;93017.47;;;12.48;43.95
65376;BME280;51976;47.332;9.404;2023-04-10T10:04:02;93018.88;;;12.45;42.79
65376;BME280;51976;47.332;9.404;2023-04-10T10:06:30;93007.78;;;12.66;44.56
65376;BME280;51976;47.332;9.404;2023-04-10T10:09:00;93009.44;;;12.43;43.79
65376;BME280;51976;47.332;9.404;2023-04-10T10:11:27;92994.66;;;12.35;43.24
65376;BME280;51976;47.332;9.404;2023-04-10T10:13:54;93006.31;;;12.54;42.76
65376;BME280;51976;47.332;9.404;2023-04-10T10:16:48;92999.59;;;12.71;43.56
65376;BME280;51976;47.332;9.404;2023-04-10T10:19:23;92992.34;;;12.47;42.26
65376;BME280;51976;47.332;9.404;2023-04-10T10:21:52;92996.75;;;13.00;42.14
65376;BME280;51976;47.332;9.404;2023-04-10T10:24:19;93000.19;;;12.86;41.94
65376;BME280;51976;47.332;9.404;2023-04-10T10:26:46;92982.84;;;12.87;41.72
65376;BME280;51976;47.332;9.404;2023-04-10T10:29:14;92984.31;;;12.61;42.27
65376;BME280;51976;47.332;9.404;2023-04-10T10:31:41;92987.03;;;12.80;42.26
65376;BME280;51976;47.332;9.404;2023-04-10T10:34:07;92990.69;;;12.89;42.43
65376;BME280;51976;47.332;9.404;2023-04-10T10:36:38;92983.16;;;13.05;42.10
65376;BME280;51976;47.332;9.404;2023-04-10T10:39:20;92969.19;;;12.98;42.58
65376;BME280;51976;47.332;9.404;2023-04-10T10:41:55;92975.72;;;12.78;42.77
65376;BME280;51976;47.332;9.404;2023-04-10T10:44:45;92972.16;;;13.15;41.48
65376;BME280;51976;47.332;9.404;2023-04-10T10:47:16;92962.25;;;12.92;42.58
65376;BME280;51976;47.332;9.404;2023-04-10T10:49:53;92954.31;;;13.14;42.00
65376;BME280;51976;47.332;9.404;2023-04-10T10:52:40;92958.66;;;12.96;41.68
65376;BME280;51976;47.332;9.404;2023-04-10T10:55:29;92957.34;;;13.12;41.87
65376;BME280;51976;47.332;9.404;2023-04-10T10:58:03;92955.22;;;13.09;42.05
65376;BME280;51976;47.332;9.404;2023-04-10T11:01:02;92947.13;;;13.42;40.92
65376;BME280;51976;47.332;9.404;2023-04-10T11:03:28;92945.63;;;13.49;41.15
65376;BME280;51976;47.332;9.404;2023-04-10T11:05:56;92937.06;;;13.75;40.34
65376;BME280;51976;47.332;9.404;2023-04-10T11:08:35;92940.00;;;13.32;40.11
65376;BME280;51976;47.332;9.404;2023-04-10T11:11:09;92936.88;;;13.99;39.05
65376;BME280;51976;47.332;9.404;2023-04-10T11:13:39;92908.78;;;13.95;39.49
65376;BME280;51976;47.332;9.404;2023-04-10T11:16:07;92926.59;;;13.68;41.39
65376;BME280;51976;47.332;9.404;2023-04-10T11:19:04;92931.94;;;13.60;41.01
65376;BME280;51976;47.332;9.404;2023-04-10T11:21:30;92930.63;;;13.71;41.29
65376;BME280;51976;47.332;9.404;2023-04-10T11:24:02;92931.09;;;13.45;40.79
65376;BME280;51976;47.332;9.404;2023-04-10T11:26:37;92929.16;;;13.32;41.42
65376;BME280;51976;47.332;9.404;2023-04-10T11:32:00;92930.69;;;13.52;42.04
65376;BME280;51976;47.332;9.404;2023-04-10T11:34:26;92924.97;;;13.40;42.45
65376;BME280;51976;47.332;9.404;2023-04-10T11:36:52;92921.63;;;13.29;42.51
65376;BME280;51976;47.332;9.404;2023-04-10T11:39:18;92918.50;;;13.82;41.50
65376;BME280;51976;47.332;9.404;2023-04-10T11:41:51;92918.81;;;13.80;42.11
65376;BME280;51976;47.332;9.404;2023-04-10T11:44:26;92912.88;;;13.65;43.23
65376;BME280;51976;47.332;9.404;2023-04-10T11:46:52;92924.31;;;13.62;42.32
65376;BME280;51976;47.332;9.404;2023-04-10T11:49:20;92904.13;;;13.68;42.06
65376;BME280;51976;47.332;9.404;2023-04-10T11:51:47;92922.53;;;13.84;42.04
65376;BME280;51976;47.332;9.404;2023-04-10T11:54:15;92923.84;;;13.41;43.25
65376;BME280;51976;47.332;9.404;2023-04-10T11:56:43;92926.66;;;13.36;42.93
65376;BME280;51976;47.332;9.404;2023-04-10T11:59:09;92919.88;;;13.52;43.09
65376;BME280;51976;47.332;9.404;2023-04-10T12:01:41;92919.50;;;13.72;42.94
65376;BME280;51976;47.332;9.404;2023-04-10T12:04:16;92928.13;;;13.61;42.95
65376;BME280;51976;47.332;9.404;2023-04-10T12:06:44;92906.91;;;13.49;43.26
65376;BME280;51976;47.332;9.404;2023-04-10T12:09:15;92916.56;;;13.69;43.65
65376;BME280;51976;47.332;9.404;2023-04-10T12:11:51;92920.59;;;13.71;43.46
65376;BME280;51976;47.332;9.404;2023-04-10T12:14:18;92925.00;;;13.53;44.31
65376;BME280;51976;47.332;9.404;2023-04-10T12:16:44;92929.88;;;13.38;44.79
65376;BME280;51976;47.332;9.404;2023-04-10T12:19:11;92926.97;;;13.48;44.94
65376;BME280;51976;47.332;9.404;2023-04-10T12:21:37;92924.16;;;13.39;45.20
65376;BME280;51976;47.332;9.404;2023-04-10T12:24:04;92922.44;;;13.43;45.09
65376;BME280;51976;47.332;9.404;2023-04-10T12:26:29;92919.81;;;13.84;44.48
65376;BME280;51976;47.332;9.404;2023-04-10T12:28:56;92918.22;;;14.11;44.21
65376;BME280;51976;47.332;9.404;2023-04-10T12:31:32;92917.66;;;13.68;45.14
65376;BME280;51976;47.332;9.404;2023-04-10T12:33:58;92914.06;;;13.72;44.74
65376;BME280;51976;47.332;9.404;2023-04-10T12:36:25;92918.22;;;13.83;44.09
65376;BME280;51976;47.332;9.404;2023-04-10T12:38:57;92914.97;;;14.36;42.55
65376;BME280;51976;47.332;9.404;2023-04-10T12:41:25;92916.13;;;13.94;44.24
65376;BME280;51976;47.332;9.404;2023-04-10T12:43:52;92912.19;;;13.86;43.96
65376;BME280;51976;47.332;9.404;2023-04-10T12:46:26;92914.09;;;13.86;42.87
65376;BME280;51976;47.332;9.404;2023-04-10T12:48:52;92905.25;;;14.08;41.74
65376;BME280;51976;47.332;9.404;2023-04-10T12:51:17;92904.56;;;13.88;43.45
65376;BME280;51976;47.332;9.404;2023-04-10T12:53:43;92909.28;;;13.83;43.47
65376;BME280;51976;47.332;9.404;2023-04-10T12:56:09;92905.06;;;13.77;44.10
65376;BME280;51976;47.332;9.404;2023-04-10T12:58:37;92898.63;;;14.14;42.15
65376;BME280;51976;47.332;9.404;2023-04-10T13:01:06;92902.34;;;14.18;42.07
65376;BME280;51976;47.332;9.404;2023-04-10T13:03:33;92901.94;;;14.11;43.55
65376;BME280;51976;47.332;9.404;2023-04-10T13:06:01;92899.13;;;14.02;43.86
65376;BME280;51976;47.332;9.404;2023-04-10T13:08:26;92873.75;;;13.84;43.69
65376;BME280;51976;47.332;9.404;2023-04-10T13:10:52;92896.34;;;13.94;43.57
65376;BME280;51976;47.332;9.404;2023-04-10T13:13:18;92892.91;;;14.02;41.83